Time;durP1;ratioP1;P1;durP2;ratioP2;P2;SDS_P1;SDS_P2;PMS_P1;PMS_P2;Temp;Humidity;BMP_temperature;BMP_pressure;BME280_temperature;BME280_humidity;BME280_pressure;Samples;Min_cycle;Max_cycle;Signal;HPM_P1;HPM_P2
2024/03/25 00:02:10;;;;;;;0.83;0.60;;;4.90;99.90;;;;;;5119330;28;20944;-81
2024/03/25 00:04:37;;;;;;;0.80;0.43;;;4.80;99.90;;;;;;5128411;28;20473;-81
2024/03/25 00:07:03;;;;;;;3.00;1.10;;;4.80;99.90;;;;;;5135685;28;20443;-80
2024/03/25 00:09:30;;;;;;;0.67;0.67;;;5.00;99.90;;;;;;5136157;28;20448;-80
2024/03/25 00:11:56;;;;;;;0.50;0.40;;;4.70;99.90;;;;;;5137449;27;20463;-81
2024/03/25 00:14:25;;;;;;;1.17;0.50;;;4.80;99.90;;;;;;5136580;28;20439;-81
2024/03/25 00:16:51;;;;;;;0.73;0.43;;;4.80;99.90;;;;;;5127087;28;20511;-81
2024/03/25 00:19:20;;;;;;;0.40;0.40;;;5.10;99.90;;;;;;5120127;28;20510;-81
2024/03/25 00:21:47;;;;;;;0.40;0.40;;;4.50;99.90;;;;;;5118728;28;20799;-81
2024/03/25 00:24:14;;;;;;;0.70;0.70;;;4.60;99.90;;;;;;5127132;28;20475;-80
2024/03/25 00:26:40;;;;;;;0.43;0.43;;;4.50;99.90;;;;;;5118581;28;20440;-81
2024/03/25 00:29:08;;;;;;;0.67;0.50;;;4.50;99.90;;;;;;5118550;28;20508;-80
2024/03/25 00:31:36;;;;;;;0.83;0.70;;;4.50;99.90;;;;;;5119702;28;20496;-80
2024/03/25 00:34:03;;;;;;;0.60;0.60;;;4.40;99.90;;;;;;5118739;27;20447;-80
2024/03/25 00:36:31;;;;;;;0.83;0.60;;;4.70;99.90;;;;;;5127548;28;20455;-80
2024/03/25 00:38:58;;;;;;;1.30;0.60;;;4.30;99.90;;;;;;5117539;28;20557;-80
2024/03/25 00:41:26;;;;;;;0.50;0.50;;;4.20;99.90;;;;;;5117486;28;20427;-81
2024/03/25 00:43:52;;;;;;;1.90;0.60;;;4.40;99.90;;;;;;5118644;28;20495;-81
2024/03/25 00:46:19;;;;;;;1.70;0.70;;;4.30;99.90;;;;;;5117574;28;20479;-81
2024/03/25 00:48:46;;;;;;;0.60;0.60;;;4.30;99.90;;;;;;5117815;28;20456;-81
2024/03/25 00:51:13;;;;;;;0.50;0.50;;;4.30;99.90;;;;;;5118161;28;20940;-81
2024/03/25 00:53:40;;;;;;;2.10;0.60;;;4.60;99.90;;;;;;5117924;27;20442;-81
2024/03/25 00:56:07;;;;;;;0.63;0.63;;;4.30;99.90;;;;;;5118212;28;20458;-81
2024/03/25 00:58:33;;;;;;;1.37;1.27;;;4.40;99.90;;;;;;5117474;28;20469;-81
2024/03/25 01:01:00;;;;;;;1.17;0.40;;;4.30;99.90;;;;;;5117855;28;20443;-81
2024/03/25 01:03:26;;;;;;;0.40;0.37;;;4.30;99.90;;;;;;5117111;27;20470;-80
2024/03/25 01:05:53;;;;;;;0.50;0.40;;;4.40;99.90;;;;;;5117379;28;20423;-81
2024/03/25 01:08:19;;;;;;;0.50;0.47;;;4.60;99.90;;;;;;5116432;28;20485;-80
2024/03/25 01:10:48;;;;;;;0.50;0.50;;;4.60;99.90;;;;;;5117499;28;20526;-80
2024/03/25 01:13:14;;;;;;;1.70;1.00;;;4.30;99.90;;;;;;5117101;28;20530;-80
2024/03/25 01:15:42;;;;;;;5.80;0.43;;;4.40;99.90;;;;;;5118149;27;20443;-80
2024/03/25 01:18:08;;;;;;;1.33;1.17;;;4.30;99.90;;;;;;5116585;28;20494;-81
2024/03/25 01:20:35;;;;;;;0.97;0.87;;;4.40;99.90;;;;;;5117685;28;20522;-81
2024/03/25 01:23:01;;;;;;;1.37;0.77;;;4.40;99.90;;;;;;5117268;28;20482;-80
2024/03/25 01:25:30;;;;;;;1.07;0.60;;;4.20;99.90;;;;;;5117040;28;20439;-80
2024/03/25 01:27:57;;;;;;;0.60;0.50;;;4.50;99.90;;;;;;5117415;28;20494;-81
2024/03/25 01:30:24;;;;;;;1.30;0.97;;;4.50;99.90;;;;;;5116847;28;20455;-81
2024/03/25 01:32:50;;;;;;;6.00;0.77;;;4.50;99.90;;;;;;5117341;28;20840;-81
2024/03/25 01:35:17;;;;;;;0.90;0.40;;;4.50;99.90;;;;;;5117518;28;20431;-80
2024/03/25 01:37:43;;;;;;;0.50;0.50;;;4.60;99.90;;;;;;5117255;28;20474;-81
2024/03/25 01:40:11;;;;;;;0.50;0.40;;;4.50;99.90;;;;;;5117827;28;20979;-81
2024/03/25 01:42:37;;;;;;;0.53;0.53;;;4.70;99.90;;;;;;5116803;28;20466;-80
2024/03/25 01:45:10;;;;;;;0.60;0.60;;;4.60;99.90;;;;;;5117064;27;20471;-81
2024/03/25 01:47:38;;;;;;;1.37;0.87;;;4.60;99.90;;;;;;5116861;28;20431;-81
2024/03/25 01:50:06;;;;;;;0.90;0.70;;;4.90;99.90;;;;;;5117467;28;20478;-80
2024/03/25 01:52:34;;;;;;;0.50;0.50;;;4.60;99.90;;;;;;5117438;28;20435;-81
2024/03/25 01:55:03;;;;;;;0.37;0.33;;;4.60;99.90;;;;;;5117157;28;20431;-80
2024/03/25 01:57:29;;;;;;;1.03;0.93;;;4.60;99.90;;;;;;5116381;28;20445;-81
2024/03/25 01:59:56;;;;;;;0.77;0.50;;;4.60;99.90;;;;;;5116006;28;20550;-80
2024/03/25 02:02:24;;;;;;;0.83;0.50;;;4.70;99.90;;;;;;5115988;28;20439;-80
2024/03/25 02:04:51;;;;;;;0.90;0.73;;;4.50;99.90;;;;;;5116597;28;20474;-80
2024/03/25 02:07:19;;;;;;;0.60;0.60;;;4.50;99.90;;;;;;5121281;28;20443;-79
2024/03/25 02:09:46;;;;;;;2.37;0.53;;;4.50;99.90;;;;;;5136908;28;20432;-79
2024/03/25 02:12:12;;;;;;;1.03;0.53;;;4.80;99.90;;;;;;5133236;28;20443;-80
2024/03/25 02:14:40;;;;;;;3.77;0.73;;;4.60;99.90;;;;;;5133483;28;20427;-80
2024/03/25 02:17:07;;;;;;;0.70;0.43;;;4.70;99.90;;;;;;5130537;28;21019;-80
2024/03/25 02:19:38;;;;;;;2.00;0.83;;;4.70;99.90;;;;;;5117848;28;20542;-80
2024/03/25 02:22:04;;;;;;;5.43;0.77;;;4.60;99.90;;;;;;5117051;28;20515;-80
2024/03/25 02:24:32;;;;;;;1.20;0.80;;;4.60;99.90;;;;;;5120168;28;20495;-80
2024/03/25 02:26:59;;;;;;;0.57;0.57;;;4.60;99.90;;;;;;5119233;28;20435;-80
2024/03/25 02:29:34;;;;;;;0.80;0.80;;;4.70;99.90;;;;;;5117370;28;20455;-80
2024/03/25 02:32:00;;;;;;;0.53;0.53;;;4.80;99.90;;;;;;5120447;28;20448;-80
2024/03/25 02:34:27;;;;;;;3.93;1.07;;;4.70;99.90;;;;;;5120313;28;20434;-80
2024/03/25 02:36:54;;;;;;;0.80;0.70;;;4.70;99.90;;;;;;5120032;28;20518;-80
2024/03/25 02:39:21;;;;;;;2.20;1.00;;;4.60;99.90;;;;;;5120121;28;20449;-81
2024/03/25 02:41:47;;;;;;;1.00;0.70;;;4.80;99.90;;;;;;5120421;28;20524;-81
2024/03/25 02:44:16;;;;;;;3.80;1.00;;;4.70;99.90;;;;;;5120459;28;21087;-81
2024/03/25 02:46:42;;;;;;;0.50;0.50;;;4.90;99.90;;;;;;5120804;28;20455;-80
2024/03/25 02:49:09;;;;;;;0.70;0.70;;;4.80;99.90;;;;;;5120944;28;20455;-80
2024/03/25 02:51:35;;;;;;;1.87;1.40;;;4.70;99.90;;;;;;5120089;28;20474;-80
2024/03/25 02:54:02;;;;;;;1.50;1.03;;;4.60;99.90;;;;;;5120243;28;20457;-80
2024/03/25 02:56:28;;;;;;;1.07;1.07;;;4.80;99.90;;;;;;5119743;28;20438;-81
2024/03/25 02:58:57;;;;;;;0.80;0.80;;;4.80;99.90;;;;;;5120068;27;20479;-81
2024/03/25 03:01:24;;;;;;;1.07;1.03;;;4.80;99.90;;;;;;5120498;28;20491;-81
2024/03/25 03:03:51;;;;;;;1.00;0.87;;;4.70;99.90;;;;;;5120280;28;21033;-81
2024/03/25 03:06:18;;;;;;;0.70;0.70;;;4.70;99.90;;;;;;5120693;28;20445;-81
2024/03/25 03:08:45;;;;;;;1.47;0.90;;;4.60;99.90;;;;;;5120171;28;20479;-81
2024/03/25 03:11:11;;;;;;;1.87;0.80;;;4.60;99.90;;;;;;5120072;28;20491;-81
2024/03/25 03:13:38;;;;;;;2.00;1.23;;;4.60;99.90;;;;;;5120581;28;20470;-81
2024/03/25 03:16:05;;;;;;;1.33;0.73;;;4.60;99.90;;;;;;5120540;28;20486;-81
2024/03/25 03:18:33;;;;;;;2.60;1.80;;;4.50;99.90;;;;;;5119724;27;20451;-81
2024/03/25 03:20:59;;;;;;;0.77;0.60;;;4.90;99.90;;;;;;5120009;28;20543;-81
2024/03/25 03:23:26;;;;;;;2.33;0.60;;;4.60;99.90;;;;;;5120531;28;20467;-81
2024/03/25 03:25:52;;;;;;;1.13;1.13;;;4.50;99.90;;;;;;5120216;28;20446;-81
2024/03/25 03:28:19;;;;;;;2.67;1.50;;;4.70;99.90;;;;;;5120346;28;20450;-81
2024/03/25 03:30:45;;;;;;;1.27;0.80;;;4.90;99.90;;;;;;5119816;28;20463;-81
2024/03/25 03:33:12;;;;;;;3.70;1.20;;;4.50;99.90;;;;;;5119782;28;20462;-81
2024/03/25 03:35:40;;;;;;;0.87;0.87;;;4.40;99.90;;;;;;5120045;27;20439;-81
2024/03/25 03:38:07;;;;;;;0.80;0.80;;;4.50;99.90;;;;;;5119092;28;21026;-81
2024/03/25 03:40:33;;;;;;;1.40;0.70;;;4.50;99.90;;;;;;5119752;28;20435;-81
2024/03/25 03:43:00;;;;;;;0.70;0.60;;;4.60;99.90;;;;;;5119681;28;20527;-81
2024/03/25 03:45:26;;;;;;;0.73;0.60;;;4.60;99.90;;;;;;5120250;27;20566;-81
2024/03/25 03:47:53;;;;;;;0.70;0.70;;;4.50;99.90;;;;;;5119499;28;20545;-81
2024/03/25 03:50:19;;;;;;;0.70;0.50;;;4.60;99.90;;;;;;5119831;28;20435;-81
2024/03/25 03:52:47;;;;;;;1.83;0.90;;;4.50;99.90;;;;;;5119785;28;20450;-81
2024/03/25 03:55:13;;;;;;;1.23;0.50;;;4.40;99.90;;;;;;5119653;28;20443;-81
2024/03/25 03:57:42;;;;;;;0.87;0.50;;;4.60;99.90;;;;;;5119033;28;20428;-81
2024/03/25 04:00:11;;;;;;;1.13;0.73;;;4.80;99.90;;;;;;5119281;28;20524;-81
2024/03/25 04:02:39;;;;;;;0.83;0.60;;;4.40;99.90;;;;;;5119043;28;20505;-81
2024/03/25 04:05:05;;;;;;;1.93;0.83;;;4.60;99.90;;;;;;5118601;28;20471;-81
2024/03/25 04:07:33;;;;;;;1.07;0.63;;;4.60;99.90;;;;;;5118417;28;21008;-81
2024/03/25 04:10:00;;;;;;;2.87;0.80;;;4.60;99.90;;;;;;5118971;28;20449;-80
2024/03/25 04:12:27;;;;;;;1.00;0.60;;;4.70;99.90;;;;;;5118492;28;20493;-80
2024/03/25 04:14:55;;;;;;;2.10;0.70;;;4.60;99.90;;;;;;5119110;28;20435;-80
2024/03/25 04:17:23;;;;;;;7.50;0.60;;;4.70;99.90;;;;;;5118887;28;20482;-80
2024/03/25 04:19:48;;;;;;;1.53;0.73;;;4.60;99.90;;;;;;5126156;28;20515;-80
2024/03/25 04:22:16;;;;;;;3.13;1.07;;;4.80;99.90;;;;;;5118217;28;20478;-80
2024/03/25 04:24:42;;;;;;;2.53;0.70;;;4.70;99.90;;;;;;5120930;28;20504;-80
2024/03/25 04:27:12;;;;;;;0.80;0.70;;;4.50;99.90;;;;;;5125642;28;20440;-80
2024/03/25 04:29:39;;;;;;;0.97;0.70;;;4.50;99.90;;;;;;5117235;28;20498;-81
2024/03/25 04:32:05;;;;;;;1.17;1.07;;;4.50;99.90;;;;;;5117182;28;20483;-81
2024/03/25 04:34:33;;;;;;;0.70;0.60;;;4.50;99.90;;;;;;5117937;28;20523;-81
